createdAt,value
2017-03-25T00:01:55.153Z,1025.91
2017-03-25T00:06:51.402Z,1025.87
2017-03-25T00:11:47.887Z,1025.82
2017-03-25T00:16:44.933Z,1025.91
2017-03-25T00:21:41.460Z,1025.86
2017-03-25T00:26:37.578Z,1025.90
2017-03-25T00:31:34.273Z,1025.81
2017-03-25T00:36:30.653Z,1025.80
2017-03-25T00:41:27.034Z,1025.88
2017-03-25T00:46:23.614Z,1025.90
2017-03-25T00:51:19.901Z,1025.88
2017-03-25T00:56:16.254Z,1025.97
2017-03-25T01:01:12.610Z,1025.83
2017-03-25T01:06:09.079Z,1025.81
2017-03-25T01:11:05.775Z,1025.75
2017-03-25T01:16:02.096Z,1025.61
2017-03-25T01:20:58.414Z,1025.70
2017-03-25T01:25:54.714Z,1025.63
2017-03-25T01:30:51.075Z,1025.62
2017-03-25T01:35:47.637Z,1025.60
2017-03-25T01:40:43.976Z,1025.53
2017-03-25T01:45:40.444Z,1025.44
2017-03-25T01:50:36.976Z,1025.52
2017-03-25T01:55:33.403Z,1025.47
2017-03-25T02:00:29.704Z,1025.40
2017-03-25T02:05:26.015Z,1025.48
2017-03-25T02:10:22.649Z,1025.37
2017-03-25T02:15:19.875Z,1025.40
2017-03-25T02:20:16.158Z,1025.36
2017-03-25T02:25:13.223Z,1025.25
2017-03-25T02:30:09.517Z,1025.23
2017-03-25T02:35:05.864Z,1025.14
2017-03-25T02:40:02.447Z,1025.18
2017-03-25T02:44:58.760Z,1025.13
2017-03-25T02:49:55.220Z,1025.08
2017-03-25T02:54:51.670Z,1025.08
2017-03-25T02:59:48.025Z,1025.13
2017-03-25T03:04:44.538Z,1025.13
2017-03-25T03:09:40.775Z,1025.04
2017-03-25T03:14:37.035Z,1025.03
2017-03-25T03:19:33.241Z,1025.05
2017-03-25T03:24:29.826Z,1025.02
2017-03-25T03:29:26.280Z,1024.93
2017-03-25T03:34:23.736Z,1024.96
2017-03-25T03:39:20.205Z,1025.07
2017-03-25T03:44:16.594Z,1024.99
2017-03-25T03:49:13.052Z,1024.99
2017-03-25T03:54:09.287Z,1025.01
2017-03-25T03:59:06.472Z,1025.03
2017-03-25T04:04:03.511Z,1024.94
2017-03-25T04:08:59.727Z,1024.90
2017-03-25T04:13:56.862Z,1024.95
2017-03-25T04:18:53.989Z,1024.89
2017-03-25T04:23:50.365Z,1024.84
2017-03-25T04:28:46.701Z,1024.84
2017-03-25T04:33:43.163Z,1024.80
2017-03-25T04:38:39.548Z,1024.88
2017-03-25T04:43:36.286Z,1024.88
2017-03-25T04:48:33.523Z,1024.91
2017-03-25T04:53:29.537Z,1024.90
2017-03-25T04:58:25.821Z,1024.88
2017-03-25T05:03:22.523Z,1024.98
2017-03-25T05:08:18.761Z,1024.91
2017-03-25T05:13:15.842Z,1024.95
2017-03-25T05:18:12.107Z,1024.90
2017-03-25T05:23:08.497Z,1024.89
2017-03-25T05:28:05.249Z,1024.92
2017-03-25T05:33:01.488Z,1024.88
2017-03-25T05:37:57.927Z,1024.95
2017-03-25T05:42:54.459Z,1024.93
2017-03-25T05:47:51.423Z,1025.00
2017-03-25T05:52:47.823Z,1024.96
2017-03-25T05:57:44.493Z,1024.96
2017-03-25T06:02:40.826Z,1024.90
2017-03-25T06:07:37.441Z,1024.88
2017-03-25T06:12:33.985Z,1024.94
2017-03-25T06:17:30.643Z,1024.88
2017-03-25T06:22:27.019Z,1025.00
2017-03-25T06:27:24.466Z,1025.00
2017-03-25T06:32:21.346Z,1024.99
2017-03-25T06:37:17.862Z,1024.97
2017-03-25T06:42:14.682Z,1024.99
2017-03-25T06:47:11.306Z,1024.97
2017-03-25T06:52:07.783Z,1025.00
2017-03-25T06:57:04.799Z,1025.11
2017-03-25T07:02:01.555Z,1025.18
2017-03-25T07:06:58.999Z,1025.19
2017-03-25T07:11:55.887Z,1025.20
2017-03-25T07:16:52.191Z,1025.21
2017-03-25T07:21:49.898Z,1025.38
2017-03-25T07:26:46.032Z,1025.30
2017-03-25T07:31:42.435Z,1025.21
2017-03-25T07:36:40.513Z,1025.12
2017-03-25T07:41:38.134Z,1025.12
2017-03-25T07:46:35.204Z,1025.16
2017-03-25T07:51:31.887Z,1025.22
2017-03-25T07:56:29.197Z,1025.21
2017-03-25T08:01:26.590Z,1025.28
2017-03-25T08:06:24.143Z,1025.19
2017-03-25T08:11:20.730Z,1025.29
2017-03-25T08:16:17.318Z,1025.30
2017-03-25T08:21:14.662Z,1025.22
2017-03-25T08:26:11.328Z,1025.26
2017-03-25T08:31:08.045Z,1025.14
2017-03-25T08:36:04.375Z,1025.12
2017-03-25T08:41:01.208Z,1025.10
2017-03-25T08:45:57.333Z,1025.19
2017-03-25T08:50:53.504Z,1025.17
2017-03-25T08:55:49.886Z,1025.18
2017-03-25T09:00:46.701Z,1025.18
2017-03-25T09:05:43.181Z,1025.16
2017-03-25T09:10:39.720Z,1025.14
2017-03-25T09:15:36.602Z,1025.15
2017-03-25T09:20:33.133Z,1025.06
2017-03-25T09:25:29.745Z,1025.09
2017-03-25T09:30:26.992Z,1025.00
2017-03-25T09:35:23.652Z,1024.91
2017-03-25T09:40:20.295Z,1024.88
2017-03-25T09:45:17.172Z,1024.89
2017-03-25T09:50:14.851Z,1024.85
2017-03-25T09:55:11.603Z,1024.87
2017-03-25T10:00:08.242Z,1024.78
2017-03-25T10:05:05.522Z,1024.69
2017-03-25T10:10:02.231Z,1024.79
2017-03-25T10:14:59.479Z,1024.65
2017-03-25T10:19:56.165Z,1024.69
2017-03-25T10:24:52.825Z,1024.53
2017-03-25T10:29:49.098Z,1024.49
2017-03-25T10:34:46.584Z,1024.48
2017-03-25T10:39:44.580Z,1024.32
2017-03-25T10:44:40.576Z,1024.27
2017-03-25T10:49:36.254Z,1024.25
2017-03-25T10:54:33.022Z,1024.21
2017-03-25T10:59:31.114Z,1024.17
2017-03-25T11:04:28.465Z,1024.05
2017-03-25T11:09:26.052Z,1024.05
2017-03-25T11:14:25.745Z,1023.89
2017-03-25T11:19:23.216Z,1023.72
2017-03-25T11:24:23.378Z,1023.73
2017-03-25T11:29:19.854Z,1023.59
2017-03-25T11:34:16.695Z,1023.63
2017-03-25T11:39:13.608Z,1023.60
2017-03-25T11:44:10.231Z,1023.46
2017-03-25T11:49:07.076Z,1023.41
2017-03-25T11:54:04.088Z,1023.33
2017-03-25T11:59:01.293Z,1023.34
2017-03-25T12:03:57.933Z,1023.39
2017-03-25T12:13:56.041Z,1023.24
2017-03-25T12:18:58.092Z,1023.05
2017-03-25T12:23:53.845Z,1023.04
2017-03-25T12:28:51.747Z,1022.90
2017-03-25T12:33:51.045Z,1022.71
2017-03-25T12:38:46.069Z,1022.56
2017-03-25T12:43:41.627Z,1022.59
2017-03-25T12:48:38.348Z,1022.53
2017-03-25T12:53:33.138Z,1022.45
2017-03-25T12:58:28.024Z,1022.34
2017-03-25T13:03:24.536Z,1022.24
2017-03-25T13:08:21.329Z,1022.21
2017-03-25T13:13:18.136Z,1022.18
2017-03-25T13:18:14.682Z,1022.25
2017-03-25T13:23:13.075Z,1022.07
2017-03-25T13:28:11.181Z,1021.93
2017-03-25T13:33:07.723Z,1021.97
2017-03-25T13:38:04.797Z,1021.87
2017-03-25T13:43:00.133Z,1021.89
2017-03-25T13:47:55.672Z,1021.79
2017-03-25T13:52:52.134Z,1021.67
2017-03-25T13:57:49.292Z,1021.65
2017-03-25T14:02:45.978Z,1021.50
2017-03-25T14:07:42.711Z,1021.35
2017-03-25T14:12:40.003Z,1021.37
2017-03-25T14:17:36.702Z,1021.29
2017-03-25T14:22:33.793Z,1021.17
2017-03-25T14:27:29.807Z,1021.14
2017-03-25T14:32:26.060Z,1021.20
2017-03-25T14:37:23.874Z,1021.14
2017-03-25T14:42:20.078Z,1021.12
2017-03-25T14:47:16.975Z,1021.00
2017-03-25T14:52:13.581Z,1020.90
2017-03-25T14:57:10.137Z,1020.84
2017-03-25T15:02:06.302Z,1020.68
2017-03-25T15:07:02.217Z,1020.65
2017-03-25T15:11:58.163Z,1020.50
2017-03-25T15:16:54.268Z,1020.36
2017-03-25T15:21:50.444Z,1020.40
2017-03-25T15:26:46.845Z,1020.28
2017-03-25T15:31:43.160Z,1020.17
2017-03-25T15:36:39.646Z,1020.10
2017-03-25T15:41:36.417Z,1020.09
2017-03-25T15:46:32.641Z,1020.00
2017-03-25T15:51:29.236Z,1020.03
2017-03-25T15:56:27.836Z,1019.96
2017-03-25T16:01:23.958Z,1019.88
2017-03-25T16:06:20.552Z,1019.82
2017-03-25T16:11:17.382Z,1019.76
2017-03-25T16:16:14.282Z,1019.67
2017-03-25T16:21:10.238Z,1019.63
2017-03-25T16:26:06.716Z,1019.57
2017-03-25T16:31:05.912Z,1019.60
2017-03-25T16:36:01.721Z,1019.63
2017-03-25T16:40:58.208Z,1019.65
2017-03-25T16:45:54.632Z,1019.69
2017-03-25T16:50:51.297Z,1019.57
2017-03-25T16:55:47.884Z,1019.50
2017-03-25T17:00:44.539Z,1019.69
2017-03-25T17:05:41.527Z,1019.63
2017-03-25T17:10:37.941Z,1019.60
2017-03-25T17:15:34.238Z,1019.61
2017-03-25T17:20:30.497Z,1019.60
2017-03-25T17:25:26.951Z,1019.62
2017-03-25T17:30:23.400Z,1019.55
2017-03-25T17:35:20.857Z,1019.49
2017-03-25T17:40:17.213Z,1019.60
2017-03-25T17:45:13.507Z,1019.58
2017-03-25T17:50:10.487Z,1019.45
2017-03-25T17:55:06.901Z,1019.51
2017-03-25T18:00:03.312Z,1019.54
2017-03-25T18:04:59.610Z,1019.61
2017-03-25T18:09:55.993Z,1019.75
2017-03-25T18:14:52.540Z,1019.68
2017-03-25T18:19:48.957Z,1019.80
2017-03-25T18:24:45.410Z,1019.83
2017-03-25T18:29:41.472Z,1019.92
2017-03-25T18:34:37.917Z,1019.89
2017-03-25T18:39:34.684Z,1019.83
2017-03-25T18:44:31.510Z,1019.86
2017-03-25T18:49:27.705Z,1019.86
2017-03-25T18:54:24.035Z,1019.91
2017-03-25T18:59:20.321Z,1019.87
2017-03-25T19:04:19.565Z,1019.84
2017-03-25T19:09:15.324Z,1019.82
2017-03-25T19:14:12.106Z,1019.87
2017-03-25T19:19:08.455Z,1019.81
2017-03-25T19:24:04.801Z,1019.85
2017-03-25T19:29:01.329Z,1019.82
2017-03-25T19:33:58.031Z,1019.91
2017-03-25T19:38:55.686Z,1019.97
2017-03-25T19:43:51.777Z,1019.92
2017-03-25T19:48:49.208Z,1020.07
2017-03-25T19:53:45.412Z,1020.03
2017-03-25T19:58:41.833Z,1019.88
2017-03-25T20:03:38.032Z,1020.02
2017-03-25T20:08:34.395Z,1019.94
2017-03-25T20:13:30.569Z,1019.89
2017-03-25T20:18:27.794Z,1019.87
2017-03-25T20:23:24.155Z,1019.81
2017-03-25T20:28:20.723Z,1019.91
2017-03-25T20:33:17.340Z,1019.90
2017-03-25T20:38:14.879Z,1020.02
2017-03-25T20:43:11.054Z,1020.06
2017-03-25T20:48:07.337Z,1019.99
2017-03-25T20:53:03.794Z,1019.95
2017-03-25T20:58:00.013Z,1020.01
2017-03-25T21:02:56.688Z,1019.92
2017-03-25T21:07:52.995Z,1020.12
2017-03-25T21:12:49.340Z,1020.08
2017-03-25T21:17:45.761Z,1020.08
2017-03-25T21:22:42.281Z,1020.11
2017-03-25T21:27:38.778Z,1020.21
2017-03-25T21:32:37.581Z,1020.10
2017-03-25T21:37:33.219Z,1020.00
2017-03-25T21:42:29.625Z,1019.94
2017-03-25T21:47:26.198Z,1019.87
2017-03-25T21:52:22.573Z,1019.89
2017-03-25T21:57:19.094Z,1019.74
2017-03-25T22:02:16.343Z,1019.77
2017-03-25T22:07:13.253Z,1019.88
2017-03-25T22:12:09.535Z,1019.87
2017-03-25T22:17:06.611Z,1019.94
2017-03-25T22:22:03.804Z,1019.68
2017-03-25T22:27:00.393Z,1019.62
2017-03-25T22:31:56.801Z,1019.64
2017-03-25T22:36:53.023Z,1019.54
2017-03-25T22:41:49.535Z,1019.61
2017-03-25T22:46:45.729Z,1019.63
2017-03-25T22:51:42.298Z,1019.64
2017-03-25T22:56:38.652Z,1019.66
2017-03-25T23:01:35.616Z,1019.59
2017-03-25T23:06:32.565Z,1019.52
2017-03-25T23:11:29.688Z,1019.49
2017-03-25T23:16:27.187Z,1019.51
2017-03-25T23:21:23.545Z,1019.48
2017-03-25T23:26:19.841Z,1019.46
2017-03-25T23:31:16.148Z,1019.30
2017-03-25T23:36:12.505Z,1019.32
2017-03-25T23:41:09.045Z,1019.34
2017-03-25T23:46:05.224Z,1019.36
2017-03-25T23:51:01.467Z,1019.30
2017-03-25T23:55:59.148Z,1019.38
